Time;durP1;ratioP1;P1;durP2;ratioP2;P2;SDS_P1;SDS_P2;PMS_P1;PMS_P2;Temp;Humidity;BMP_temperature;BMP_pressure;BME280_temperature;BME280_humidity;BME280_pressure;Samples;Min_cycle;Max_cycle;Signal;HPM_P1;HPM_P2
2022/06/22 00:00:34;;;;;;;4.78;3.05;;;;;;;16.32;76.74;100012.88;4423125;32;20128;-74
2022/06/22 00:03:04;;;;;;;5.40;2.28;;;;;;;16.38;76.07;100013.47;4423083;32;20589;-74
2022/06/22 00:05:39;;;;;;;2.22;1.92;;;;;;;16.42;76.45;100027.53;4423194;32;20085;-74
2022/06/22 00:08:12;;;;;;;2.00;1.52;;;;;;;16.40;76.22;100027.59;4422849;32;20081;-74
2022/06/22 00:10:53;;;;;;;3.90;1.20;;;;;;;16.38;77.09;100026.78;4422954;32;20096;-74
2022/06/22 00:13:26;;;;;;;5.82;1.95;;;;;;;16.28;76.79;100022.78;4422689;32;20085;-74
2022/06/22 00:16:01;;;;;;;3.67;0.93;;;;;;;16.31;77.02;100024.44;4408704;32;20501;-74
2022/06/22 00:18:37;;;;;;;2.72;1.25;;;;;;;16.39;75.62;100023.19;4422826;32;20420;-74
2022/06/22 00:21:36;;;;;;;3.25;1.27;;;;;;;16.38;75.33;100013.47;4422822;32;20096;-74
2022/06/22 00:24:23;;;;;;;1.65;1.20;;;;;;;16.43;74.83;100011.53;4416245;32;20140;-74
2022/06/22 00:27:15;;;;;;;1.80;1.23;;;;;;;16.41;77.72;100023.13;4422674;32;20158;-75
2022/06/22 00:29:45;;;;;;;2.85;1.20;;;;;;;16.39;77.21;100025.84;4422707;32;20101;-75
2022/06/22 00:32:17;;;;;;;3.00;1.37;;;;;;;16.39;77.53;100028.50;4422674;32;20405;-75
2022/06/22 00:34:44;;;;;;;1.98;1.10;;;;;;;16.40;78.36;100026.75;4422557;32;20489;-75
2022/06/22 00:37:22;;;;;;;1.83;1.00;;;;;;;16.39;78.21;100027.63;4422630;32;20147;-74
2022/06/22 00:39:54;;;;;;;2.55;1.40;;;;;;;16.30;79.27;100026.25;4422877;32;20167;-74
2022/06/22 00:42:50;;;;;;;1.50;1.35;;;;;;;16.21;80.06;100029.25;4422670;32;20116;-74
2022/06/22 00:45:30;;;;;;;2.25;1.27;;;;;;;16.06;79.96;100025.44;4422646;32;20109;-75
2022/06/22 00:48:01;;;;;;;2.83;1.62;;;;;;;15.99;80.07;100021.28;4422603;32;20405;-75
2022/06/22 00:50:44;;;;;;;3.00;1.20;;;;;;;16.03;79.54;100012.28;4422522;32;20109;-75
2022/06/22 00:53:33;;;;;;;3.40;1.25;;;;;;;15.98;80.04;100022.22;4422566;32;20493;-75
2022/06/22 00:56:12;;;;;;;6.03;1.37;;;;;;;15.83;82.70;100025.47;4422432;32;20093;-74
2022/06/22 00:58:52;;;;;;;5.32;1.40;;;;;;;15.73;83.76;100022.34;4422335;32;20438;-74
2022/06/22 01:02:01;;;;;;;3.37;1.35;;;;;;;15.71;84.32;100019.72;4422355;32;20595;-74
2022/06/22 01:04:43;;;;;;;1.50;1.40;;;;;;;15.65;84.81;100019.91;4358456;32;20135;-74
2022/06/22 01:07:34;;;;;;;1.55;1.33;;;;;;;15.76;82.84;100017.78;4358563;32;20083;-74
2022/06/22 01:10:10;;;;;;;4.60;1.45;;;;;;;15.60;85.47;100026.34;4406146;32;20426;-74
2022/06/22 01:13:00;;;;;;;4.80;1.25;;;;;;;15.60;85.99;100029.88;4422066;32;20164;-75
2022/06/22 01:15:32;;;;;;;3.05;1.42;;;;;;;15.53;86.39;100031.88;4422000;32;20154;-74
2022/06/22 01:18:47;;;;;;;1.73;1.33;;;;;;;15.61;84.68;100028.06;4422201;32;20097;-74
2022/06/22 01:21:29;;;;;;;4.45;1.85;;;;;;;15.63;84.92;100032.41;4410498;32;20093;-75
2022/06/22 01:24:26;;;;;;;2.50;1.30;;;;;;;15.67;84.21;100028.75;4424624;32;20096;-75
2022/06/22 01:27:31;;;;;;;5.15;1.40;;;;;;;15.68;83.74;100014.53;4424271;32;20156;-75
2022/06/22 01:30:02;;;;;;;1.30;1.20;;;;;;;15.65;85.27;100024.38;4424344;32;20085;-75
2022/06/22 01:32:34;;;;;;;10.43;1.50;;;;;;;15.63;85.58;100034.19;4424318;32;20116;-74
2022/06/22 01:35:30;;;;;;;1.60;1.50;;;;;;;15.58;86.31;100029.03;4424315;32;20140;-74
2022/06/22 01:37:57;;;;;;;2.47;1.48;;;;;;;15.54;85.96;100041.56;4424459;32;20519;-74
2022/06/22 01:40:38;;;;;;;8.63;1.70;;;;;;;15.52;86.03;100014.22;4424349;32;20086;-74
2022/06/22 01:43:22;;;;;;;2.45;1.50;;;;;;;15.49;87.78;100021.44;4424339;32;20139;-75
2022/06/22 01:45:53;;;;;;;3.80;1.23;;;;;;;15.49;86.85;100034.72;4424111;32;20139;-75
2022/06/22 01:48:37;;;;;;;1.80;1.40;;;;;;;15.47;87.12;100029.44;4424288;32;20507;-75
2022/06/22 01:51:09;;;;;;;3.78;1.30;;;;;;;15.43;86.74;100027.84;4424213;32;20090;-75
2022/06/22 01:53:47;;;;;;;3.85;1.75;;;;;;;15.34;89.49;100027.34;4424194;32;20093;-74
2022/06/22 01:56:24;;;;;;;3.90;1.50;;;;;;;15.26;89.64;100028.50;4423974;32;20097;-74
2022/06/22 01:59:24;;;;;;;3.00;1.30;;;;;;;15.25;90.97;100017.91;4424026;32;20178;-74
2022/06/22 02:02:14;;;;;;;8.40;1.85;;;;;;;15.17;90.53;100025.31;4423959;32;20135;-74
2022/06/22 02:04:50;;;;;;;2.42;1.40;;;;;;;15.24;89.16;100026.81;4424233;32;20073;-74
2022/06/22 02:07:45;;;;;;;1.50;1.40;;;;;;;15.25;88.96;100029.38;4424160;32;20574;-74
2022/06/22 02:10:30;;;;;;;1.45;1.40;;;;;;;15.22;89.22;100026.84;4424037;32;20171;-74
2022/06/22 02:13:01;;;;;;;2.03;1.55;;;;;;;15.11;91.09;100031.69;4423876;32;20085;-74
2022/06/22 02:15:38;;;;;;;1.95;1.65;;;;;;;15.01;92.60;100027.63;4423939;32;20152;-74
2022/06/22 02:18:20;;;;;;;3.92;1.60;;;;;;;15.01;91.52;100041.75;4423930;32;20098;-74
2022/06/22 02:20:47;;;;;;;4.80;1.33;;;;;;;15.01;92.02;100049.72;4423981;32;20143;-75
2022/06/22 02:23:32;;;;;;;3.87;1.65;;;;;;;15.02;91.64;100050.59;4424216;32;20093;-75
2022/06/22 02:26:07;;;;;;;5.60;2.20;;;;;;;14.98;92.80;100051.59;4423992;32;20089;-75
2022/06/22 02:28:34;;;;;;;2.37;1.42;;;;;;;14.88;93.26;100045.78;4423928;32;20168;-75
2022/06/22 02:31:02;;;;;;;3.10;1.65;;;;;;;14.90;93.26;100051.88;4423936;32;20101;-75
2022/06/22 02:33:34;;;;;;;7.80;1.95;;;;;;;14.87;93.78;100056.44;4423793;32;20074;-74
2022/06/22 02:36:02;;;;;;;2.47;1.60;;;;;;;14.84;93.64;100057.44;4423864;32;20093;-74
2022/06/22 02:38:29;;;;;;;5.78;1.65;;;;;;;14.85;93.85;100059.16;4423852;32;20109;-74
2022/06/22 02:46:39;;;;;;;1.98;1.70;;;;;;;14.83;96.36;100064.50;4423944;32;20093;-75
2022/06/22 02:49:16;;;;;;;4.22;1.65;;;;;;;14.86;95.92;100062.66;4424104;32;20511;-75
2022/06/22 02:51:46;;;;;;;6.22;1.40;;;;;;;14.91;94.33;100066.00;4423953;32;20113;-75
2022/06/22 02:54:26;;;;;;;4.28;1.80;;;;;;;14.98;93.88;100062.22;4423910;32;20093;-75
2022/06/22 02:57:24;;;;;;;3.60;2.05;;;;;;;15.40;91.49;100061.59;4423966;32;20162;-75
2022/06/22 02:59:51;;;;;;;3.08;1.92;;;;;;;15.18;91.81;100070.34;4423743;32;20561;-75
2022/06/22 03:02:21;;;;;;;4.57;2.03;;;;;;;15.12;92.73;100075.00;4423647;32;20196;-75
2022/06/22 03:04:51;;;;;;;2.28;1.65;;;;;;;15.04;94.07;100080.59;4423758;32;20094;-74
2022/06/22 03:07:21;;;;;;;2.78;1.67;;;;;;;15.05;94.23;100084.97;4409603;32;20146;-74
2022/06/22 03:09:49;;;;;;;6.75;1.62;;;;;;;15.09;93.73;100085.72;4423753;32;20093;-75
2022/06/22 03:12:16;;;;;;;2.37;1.73;;;;;;;15.04;93.76;100091.19;4423664;32;20132;-75
2022/06/22 03:14:48;;;;;;;2.87;1.80;;;;;;;15.06;94.01;100087.59;4424070;32;20093;-75
2022/06/22 03:17:18;;;;;;;5.07;1.60;;;;;;;15.05;93.24;100090.28;4423672;32;20238;-74
2022/06/22 03:20:11;;;;;;;3.12;1.70;;;;;;;15.09;93.40;100094.56;4423972;32;20085;-75
2022/06/22 03:22:53;;;;;;;7.40;1.23;;;;;;;15.10;93.39;100080.38;4423835;32;20182;-75
2022/06/22 03:26:05;;;;;;;4.95;1.52;;;;;;;15.11;92.85;100079.44;4423612;32;20085;-75
2022/06/22 03:28:39;;;;;;;3.10;1.73;;;;;;;15.12;93.93;100090.94;4345038;32;20170;-75
2022/06/22 03:31:14;;;;;;;3.10;1.52;;;;;;;15.07;94.32;100093.75;4416329;32;20085;-75
2022/06/22 03:33:47;;;;;;;4.07;1.85;;;;;;;15.04;94.37;100102.69;4408628;32;20792;-74
2022/06/22 03:36:20;;;;;;;4.25;1.80;;;;;;;15.05;95.54;100096.47;4409006;32;20140;-74
2022/06/22 03:39:00;;;;;;;3.35;1.60;;;;;;;15.13;96.68;100092.69;4409188;32;20081;-74
2022/06/22 03:41:33;;;;;;;7.95;1.55;;;;;;;15.19;96.88;100087.13;4409255;32;20114;-74
2022/06/22 03:44:08;;;;;;;2.45;1.83;;;;;;;15.36;96.66;100089.19;4408532;32;20093;-75
2022/06/22 03:46:47;;;;;;;5.18;1.90;;;;;;;15.44;96.39;100088.00;4407313;32;20101;-78
2022/06/22 03:49:34;;;;;;;7.03;1.95;;;;;;;15.62;95.79;100086.47;4407303;32;20115;-78
2022/06/22 03:52:13;;;;;;;4.47;1.87;;;;;;;15.81;93.79;100080.47;4402836;32;20193;-78
2022/06/22 03:54:57;;;;;;;2.47;1.50;;;;;;;15.91;93.38;100068.56;4414552;32;20106;-78
2022/06/22 03:57:29;;;;;;;1.95;1.52;;;;;;;16.08;92.56;100065.22;4408830;32;20094;-79
2022/06/22 03:59:56;;;;;;;4.32;1.60;;;;;;;16.32;89.24;100056.28;4408876;32;20094;-79
2022/06/22 04:02:26;;;;;;;4.18;1.27;;;;;;;16.60;85.30;100047.16;4408677;32;20143;-78
2022/06/22 04:04:57;;;;;;;3.92;1.33;;;;;;;16.76;83.54;100034.97;4408116;32;20603;-78
2022/06/22 04:07:28;;;;;;;2.25;1.17;;;;;;;16.87;82.52;100026.53;4408019;32;20086;-78
2022/06/22 04:09:55;;;;;;;2.72;1.45;;;;;;;17.01;81.28;100040.09;4407744;32;20410;-79
2022/06/22 04:12:28;;;;;;;2.40;1.10;;;;;;;17.11;81.06;100037.91;4407420;32;20551;-79
2022/06/22 04:15:09;;;;;;;1.33;1.25;;;;;;;17.30;80.11;100035.28;4406356;32;20109;-79
2022/06/22 04:17:40;;;;;;;2.15;1.20;;;;;;;17.49;79.31;100036.19;4407667;32;20159;-79
2022/06/22 04:20:17;;;;;;;3.72;1.20;;;;;;;17.69;77.23;100036.09;4407570;32;20085;-79
2022/06/22 04:22:50;;;;;;;2.42;1.30;;;;;;;17.86;76.53;100029.16;4407607;32;20143;-79
2022/06/22 04:25:35;;;;;;;1.52;1.05;;;;;;;17.91;76.20;100032.44;4407787;32;20109;-79
2022/06/22 04:28:09;;;;;;;1.25;1.12;;;;;;;18.04;75.92;100035.41;4407742;32;20148;-79
2022/06/22 04:30:45;;;;;;;3.92;1.37;;;;;;;18.09;74.65;100030.69;4406291;32;20159;-79
2022/06/22 04:33:34;;;;;;;4.68;1.42;;;;;;;18.19;74.74;100031.97;4408426;32;20101;-79
2022/06/22 04:36:08;;;;;;;5.15;1.30;;;;;;;18.26;73.97;100035.22;4408900;32;20117;-79
2022/06/22 04:38:35;;;;;;;1.10;0.85;;;;;;;18.36;73.34;100024.03;4407446;32;20074;-79
2022/06/22 04:41:31;;;;;;;1.50;1.10;;;;;;;18.42;73.23;100022.00;4407435;32;20522;-79
2022/06/22 04:44:24;;;;;;;2.28;1.08;;;;;;;18.59;72.73;100035.34;4391968;32;20588;-79
2022/06/22 04:46:58;;;;;;;1.87;1.10;;;;;;;18.82;71.72;100042.22;4407317;32;20148;-79
2022/06/22 04:49:41;;;;;;;4.68;1.30;;;;;;;19.27;69.73;100051.44;4405746;32;20493;-79
2022/06/22 04:52:14;;;;;;;1.75;1.20;;;;;;;19.47;68.37;100053.91;4396320;32;20111;-79
2022/06/22 04:54:43;;;;;;;3.53;1.73;;;;;;;19.79;67.33;100054.00;4407302;32;20090;-79
2022/06/22 04:57:20;;;;;;;6.30;1.50;;;;;;;19.93;67.34;100046.09;4409150;32;20131;-79
2022/06/22 04:59:48;;;;;;;26.40;1.98;;;;;;;19.65;67.32;100060.09;4409327;32;20119;-79
2022/06/22 05:02:21;;;;;;;2.00;0.88;;;;;;;19.65;68.05;100059.25;4409266;32;20094;-79
2022/06/22 05:04:53;;;;;;;15.82;1.40;;;;;;;19.72;68.50;100066.84;4395028;32;20102;-79
2022/06/22 05:07:38;;;;;;;4.22;1.00;;;;;;;19.78;67.68;100066.47;4409865;32;20138;-79
2022/06/22 05:10:08;;;;;;;1.77;1.05;;;;;;;19.92;66.59;100065.72;4412161;32;20430;-78
2022/06/22 05:12:50;;;;;;;4.00;1.23;;;;;;;19.86;65.85;100059.84;4413439;32;20089;-79
2022/06/22 05:15:23;;;;;;;1.20;1.02;;;;;;;19.97;66.99;100073.50;4414323;32;20139;-79
2022/06/22 05:17:50;;;;;;;9.23;1.10;;;;;;;20.02;66.11;100076.78;4414156;32;20175;-79
2022/06/22 05:20:33;;;;;;;11.77;1.50;;;;;;;20.13;65.80;100077.03;4407814;32;20130;-78
2022/06/22 05:23:04;;;;;;;5.82;1.10;;;;;;;20.35;65.06;100092.72;4397432;32;20452;-78
2022/06/22 05:25:32;;;;;;;1.92;1.05;;;;;;;20.46;64.97;100094.78;4424258;32;20454;-79
2022/06/22 05:28:15;;;;;;;6.95;1.05;;;;;;;20.45;63.58;100101.97;4424373;32;20186;-79
2022/06/22 05:30:54;;;;;;;3.08;0.95;;;;;;;20.49;64.81;100110.69;4424278;32;20089;-79
2022/06/22 05:33:25;;;;;;;3.42;1.12;;;;;;;20.64;63.39;100115.19;4424242;32;20097;-79
2022/06/22 05:36:04;;;;;;;5.15;1.02;;;;;;;20.49;63.95;100100.84;4423617;32;20113;-79
2022/06/22 05:38:46;;;;;;;1.10;1.00;;;;;;;20.56;63.26;100100.53;4405959;32;20458;-79
2022/06/22 05:41:20;;;;;;;1.90;0.85;;;;;;;20.89;61.41;100098.56;4409170;32;20086;-78
2022/06/22 05:43:48;;;;;;;4.45;1.20;;;;;;;20.71;61.17;100099.66;4409032;32;20097;-78
2022/06/22 05:46:17;;;;;;;3.45;1.30;;;;;;;20.74;61.30;100099.44;4407691;32;20113;-79
2022/06/22 05:48:49;;;;;;;1.70;1.02;;;;;;;20.85;61.07;100101.47;4393644;32;20782;-79
2022/06/22 05:51:57;;;;;;;23.77;1.12;;;;;;;21.07;60.91;100106.47;4409037;32;20161;-79
2022/06/22 05:54:42;;;;;;;3.08;0.93;;;;;;;21.12;59.48;100115.94;4408205;32;20691;-79
2022/06/22 05:57:26;;;;;;;1.30;1.02;;;;;;;21.35;57.89;100106.53;4408922;32;20495;-79
2022/06/22 05:59:59;;;;;;;1.15;0.90;;;;;;;21.38;56.19;100101.00;4393777;32;20102;-78
2022/06/22 06:02:44;;;;;;;4.30;1.05;;;;;;;21.51;54.57;100113.62;4393251;32;20499;-78
2022/06/22 06:05:26;;;;;;;1.40;0.77;;;;;;;21.64;54.37;100103.88;4394176;32;20431;-78
2022/06/22 06:07:57;;;;;;;3.28;1.10;;;;;;;21.74;54.75;100117.59;4407160;32;20101;-78
2022/06/22 06:10:38;;;;;;;4.53;1.00;;;;;;;21.68;53.53;100119.69;4408392;32;20529;-78
2022/06/22 06:13:23;;;;;;;2.30;1.15;;;;;;;21.70;54.02;100123.16;4408576;32;20093;-79
2022/06/22 06:15:56;;;;;;;2.05;1.83;;;;;;;22.00;54.65;100126.66;4392260;32;20155;-79
2022/06/22 06:18:33;;;;;;;0.68;0.62;;;;;;;22.19;54.66;100119.19;4408610;32;20382;-79
2022/06/22 06:21:26;;;;;;;1.15;1.00;;;;;;;22.28;54.29;100117.75;4406842;32;20113;-79
2022/06/22 06:24:13;;;;;;;1.48;0.85;;;;;;;22.19;54.38;100108.44;4408062;32;20113;-79
2022/06/22 06:29:56;;;;;;;2.67;0.98;;;;;;;22.11;54.58;100116.09;4408225;32;20366;-79
2022/06/22 06:32:49;;;;;;;2.62;1.10;;;;;;;21.95;54.97;100122.47;4408503;32;20139;-79
2022/06/22 06:35:47;;;;;;;3.65;1.05;;;;;;;22.23;55.36;100107.31;4408957;32;20771;-79
2022/06/22 06:38:38;;;;;;;5.68;1.60;;;;;;;22.36;54.88;100105.53;4409223;32;20094;-79
2022/06/22 06:41:12;;;;;;;2.45;0.80;;;;;;;22.69;54.86;100100.75;4409083;32;20082;-79
2022/06/22 06:43:48;;;;;;;4.60;1.27;;;;;;;23.24;51.55;100113.16;4403467;32;20177;-79
2022/06/22 06:46:20;;;;;;;1.70;0.90;;;;;;;23.49;49.78;100112.31;4407881;32;20081;-79
2022/06/22 06:49:17;;;;;;;1.48;1.10;;;;;;;23.47;49.79;100111.56;4409091;32;20086;-79
2022/06/22 06:51:55;;;;;;;3.70;1.08;;;;;;;23.37;51.03;100111.34;4406107;32;20098;-79
2022/06/22 06:54:29;;;;;;;2.25;0.93;;;;;;;23.05;51.26;100111.72;4408756;32;20108;-79
2022/06/22 06:57:07;;;;;;;7.00;1.20;;;;;;;22.96;51.08;100101.59;4408869;32;20726;-79
2022/06/22 06:59:35;;;;;;;8.75;1.20;;;;;;;23.03;51.84;100116.34;4408553;32;20125;-79
2022/06/22 07:02:14;;;;;;;3.95;1.10;;;;;;;23.03;50.77;100116.34;4408782;32;20179;-79
2022/06/22 07:04:43;;;;;;;1.98;1.02;;;;;;;22.78;51.68;100116.25;4408370;32;20169;-79
2022/06/22 07:07:19;;;;;;;3.97;1.20;;;;;;;22.68;52.53;100118.66;4393438;32;20081;-79
2022/06/22 07:09:50;;;;;;;3.22;0.90;;;;;;;22.60;52.00;100108.44;4407318;32;20097;-79
2022/06/22 07:12:30;;;;;;;4.53;1.00;;;;;;;22.60;51.95;100105.75;4406311;32;20106;-79
2022/06/22 07:15:02;;;;;;;2.78;1.10;;;;;;;22.85;51.29;100096.91;4393785;32;20550;-79
2022/06/22 07:17:32;;;;;;;1.60;0.80;;;;;;;23.27;49.25;100092.28;4406803;32;20086;-79
2022/06/22 07:20:05;;;;;;;1.05;0.77;;;;;;;23.27;46.14;100086.06;4407634;32;20086;-77
2022/06/22 07:22:53;;;;;;;1.30;0.82;;;;;;;23.02;46.85;100089.59;4406989;32;20090;-79
2022/06/22 07:25:32;;;;;;;2.35;0.75;;;;;;;23.10;45.30;100089.91;4408128;32;20154;-78
2022/06/22 07:28:08;;;;;;;0.93;0.70;;;;;;;22.99;45.74;100095.16;4407392;32;20127;-78
2022/06/22 07:30:40;;;;;;;3.65;0.75;;;;;;;23.11;44.36;100084.44;4392914;32;20256;-79
2022/06/22 07:33:38;;;;;;;1.58;0.90;;;;;;;23.47;46.10;100087.38;4406597;32;20102;-78
2022/06/22 07:36:13;;;;;;;2.15;0.90;;;;;;;23.59;45.86;100086.50;4406560;32;20141;-76
2022/06/22 07:39:08;;;;;;;2.53;0.70;;;;;;;23.49;46.12;100091.66;4391281;32;20089;-78
2022/06/22 07:41:35;;;;;;;1.85;0.80;;;;;;;23.42;45.93;100084.13;4395746;32;20123;-75
2022/06/22 07:44:11;;;;;;;5.03;0.90;;;;;;;23.18;46.45;100087.56;4394121;32;20113;-75
2022/06/22 07:47:05;;;;;;;4.20;0.90;;;;;;;23.24;46.68;100095.19;4393644;32;20109;-75
2022/06/22 07:49:51;;;;;;;5.65;1.00;;;;;;;23.58;45.55;100095.53;4408469;32;20081;-77
2022/06/22 07:52:24;;;;;;;1.70;0.70;;;;;;;23.21;46.24;100089.16;4406296;32;20117;-77
2022/06/22 07:55:16;;;;;;;3.30;0.98;;;;;;;23.25;45.93;100088.88;4406593;32;20201;-77
2022/06/22 07:58:13;;;;;;;1.35;0.80;;;;;;;23.16;46.11;100094.87;4406936;32;20470;-77
2022/06/22 08:00:44;;;;;;;2.28;0.95;;;;;;;23.49;45.40;100090.78;4406001;32;20494;-77
2022/06/22 08:03:35;;;;;;;3.37;0.65;;;;;;;23.87;44.71;100096.19;4393042;32;20170;-77
2022/06/22 08:06:08;;;;;;;1.48;0.80;;;;;;;23.83;43.04;100089.31;4396761;32;20109;-78
2022/06/22 08:08:41;;;;;;;3.45;1.23;;;;;;;23.95;42.56;100080.34;4408570;32;20151;-77
2022/06/22 08:11:24;;;;;;;2.67;0.98;;;;;;;23.95;42.31;100071.41;4408414;32;20450;-77
2022/06/22 08:14:02;;;;;;;3.33;0.68;;;;;;;23.95;42.54;100077.66;4394679;32;20081;-77
2022/06/22 08:16:39;;;;;;;1.42;0.70;;;;;;;23.97;41.41;100067.63;4408571;32;20106;-78
2022/06/22 08:19:15;;;;;;;2.97;0.82;;;;;;;24.33;41.55;100065.91;4408462;32;20102;-77
2022/06/22 08:21:48;;;;;;;1.23;0.90;;;;;;;24.03;42.85;100067.19;4407835;32;20074;-77
2022/06/22 08:24:18;;;;;;;6.72;0.85;;;;;;;24.12;42.00;100059.41;4408347;32;20147;-77
2022/06/22 08:26:49;;;;;;;0.98;0.90;;;;;;;24.18;42.91;100070.59;4408310;32;20097;-77
2022/06/22 08:29:19;;;;;;;2.10;0.90;;;;;;;24.16;43.12;100063.59;4408499;32;20156;-78
2022/06/22 08:32:29;;;;;;;8.13;1.17;;;;;;;24.27;43.06;100061.81;4383374;32;20082;-78
2022/06/22 08:35:04;;;;;;;1.85;0.62;;;;;;;24.70;42.31;100064.06;4395646;32;20111;-78
2022/06/22 08:37:56;;;;;;;0.80;0.62;;;;;;;24.27;42.36;100053.75;4409547;32;20155;-77
2022/06/22 08:40:42;;;;;;;3.12;0.90;;;;;;;24.73;40.92;100058.41;4409942;32;20140;-77
2022/06/22 08:43:24;;;;;;;0.93;0.60;;;;;;;25.06;39.16;100056.81;4394578;32;20156;-77
2022/06/22 08:46:03;;;;;;;6.82;0.98;;;;;;;24.83;38.80;100057.72;4394787;32;20153;-77
2022/06/22 08:48:49;;;;;;;1.50;0.70;;;;;;;24.99;38.10;100052.88;4394852;32;20535;-77
2022/06/22 08:51:32;;;;;;;1.20;0.70;;;;;;;25.11;37.35;100056.47;4394172;32;20217;-77
2022/06/22 08:54:05;;;;;;;1.62;0.82;;;;;;;25.19;35.12;100048.66;4394139;32;20171;-78
2022/06/22 08:56:35;;;;;;;0.77;0.60;;;;;;;25.56;36.53;100049.31;4392967;32;20128;-78
2022/06/22 08:59:24;;;;;;;1.08;0.88;;;;;;;25.20;37.54;100064.72;4393171;32;20164;-77
2022/06/22 09:01:54;;;;;;;5.03;0.73;;;;;;;25.39;37.15;100068.66;4396045;32;20132;-77
2022/06/22 09:04:21;;;;;;;2.42;0.90;;;;;;;25.62;36.34;100064.13;4408983;32;20171;-77
2022/06/22 09:06:51;;;;;;;1.35;0.70;;;;;;;25.90;35.00;100049.31;4407973;32;20159;-77
2022/06/22 09:09:26;;;;;;;2.33;0.60;;;;;;;25.96;33.74;100048.81;4409273;32;20155;-77
2022/06/22 09:12:14;;;;;;;2.33;0.62;;;;;;;25.66;30.91;100060.22;4408102;32;20101;-77
2022/06/22 09:14:56;;;;;;;3.97;0.60;;;;;;;25.38;31.21;100056.16;4376991;32;20082;-77
2022/06/22 09:17:49;;;;;;;0.40;0.40;;;;;;;25.64;31.98;100054.09;4408519;32;20095;-77
2022/06/22 09:20:44;;;;;;;1.20;0.60;;;;;;;26.08;32.05;100063.16;4407668;32;20159;-77
2022/06/22 09:23:28;;;;;;;2.97;0.50;;;;;;;26.17;30.33;100062.41;4406989;32;20185;-77
2022/06/22 09:26:12;;;;;;;0.60;0.50;;;;;;;26.12;31.42;100061.94;4408606;32;20090;-78
2022/06/22 09:28:57;;;;;;;0.75;0.47;;;;;;;25.93;32.31;100054.47;4408109;32;20089;-77
2022/06/22 09:32:02;;;;;;;0.80;0.50;;;;;;;25.73;31.87;100050.66;4408800;32;20086;-77
2022/06/22 09:34:43;;;;;;;2.28;0.75;;;;;;;25.78;32.14;100040.34;4409264;32;20135;-77
2022/06/22 09:37:54;;;;;;;1.87;0.50;;;;;;;26.21;32.07;100032.31;4395465;32;20086;-77
2022/06/22 09:40:41;;;;;;;0.40;0.40;;;;;;;26.33;31.36;100041.25;4394888;32;20119;-77
2022/06/22 09:43:53;;;;;;;0.90;0.52;;;;;;;26.28;31.16;100032.66;4394911;32;20572;-77
2022/06/22 09:46:52;;;;;;;0.77;0.50;;;;;;;26.65;32.92;100035.88;4408641;32;20110;-77
2022/06/22 09:49:42;;;;;;;1.90;0.60;;;;;;;27.03;32.08;100039.00;4392938;32;20112;-78
2022/06/22 09:52:15;;;;;;;1.67;0.60;;;;;;;27.50;31.54;100040.31;4379602;32;20120;-78
2022/06/22 09:57:57;;;;;;;2.22;0.55;;;;;;;27.48;30.90;100041.44;4392868;32;20094;-77
2022/06/22 10:00:55;;;;;;;4.05;0.65;;;;;;;27.23;32.07;100048.13;4393779;32;20116;-77
2022/06/22 10:03:39;;;;;;;0.37;0.37;;;;;;;27.39;30.42;100048.53;4400532;32;20119;-77
2022/06/22 10:06:13;;;;;;;0.70;0.43;;;;;;;27.68;28.62;100031.56;4408823;32;20097;-77
2022/06/22 10:09:00;;;;;;;2.10;0.68;;;;;;;27.87;29.48;100046.03;4408556;32;20169;-77
2022/06/22 10:12:11;;;;;;;1.15;0.90;;;;;;;27.80;30.04;100039.47;4408966;32;20085;-77
2022/06/22 10:14:51;;;;;;;0.62;0.50;;;;;;;27.56;30.21;100042.50;4366948;32;20089;-77
2022/06/22 10:18:00;;;;;;;0.85;0.40;;;;;;;27.70;29.25;100037.69;4407733;32;20106;-77
2022/06/22 10:20:30;;;;;;;1.42;0.50;;;;;;;27.80;28.90;100038.59;4380092;32;20101;-77
2022/06/22 10:23:09;;;;;;;0.77;0.77;;;;;;;28.23;29.70;100023.87;4408042;32;20163;-77
2022/06/22 10:26:01;;;;;;;1.65;0.90;;;;;;;28.54;28.43;100047.19;4407315;32;20105;-77
2022/06/22 10:28:57;;;;;;;8.35;0.75;;;;;;;28.84;28.62;100045.34;4407376;32;20109;-76
2022/06/22 10:31:27;;;;;;;1.40;0.53;;;;;;;28.95;28.78;100041.63;4407897;32;20105;-74
2022/06/22 10:34:32;;;;;;;0.90;0.70;;;;;;;28.26;29.96;100040.72;4407844;32;20444;-74
2022/06/22 10:37:17;;;;;;;1.37;0.70;;;;;;;28.44;29.89;100027.34;4407990;32;20131;-73
2022/06/22 10:39:59;;;;;;;2.80;0.52;;;;;;;29.44;29.40;100042.41;4405644;32;20109;-73
2022/06/22 10:45:48;;;;;;;5.25;0.57;;;;;;;29.76;29.37;100042.03;4404737;32;20105;-75
2022/06/22 10:48:42;;;;;;;2.87;0.60;;;;;;;30.16;28.50;100036.22;4402000;32;20648;-74
2022/06/22 10:51:27;;;;;;;2.67;0.60;;;;;;;29.46;29.23;100038.53;4394309;32;20102;-74
2022/06/22 10:54:04;;;;;;;;;;;;;;;29.63;28.96;100045.06;4401712;32;20101;-74
2022/06/22 10:57:05;;;;;;;1.47;0.50;;;;;;;29.85;29.41;100034.81;4402270;32;20038;-74
2022/06/22 11:00:10;;;;;;;0.98;0.60;;;;;;;30.17;28.04;100042.50;4400915;32;20098;-75
2022/06/22 11:03:23;;;;;;;0.60;0.60;;;;;;;30.70;28.28;100042.56;4398893;32;20985;-73
2022/06/22 11:06:19;;;;;;;3.97;1.12;;;;;;;31.05;28.30;100035.41;4371580;32;20109;-73
2022/06/22 11:08:56;;;;;;;2.90;0.90;;;;;;;30.77;28.21;100033.81;4401169;32;20111;-74
2022/06/22 11:11:44;;;;;;;0.95;0.57;;;;;;;31.33;28.51;100033.41;4401183;32;20216;-74
2022/06/22 11:14:21;;;;;;;1.62;0.50;;;;;;;30.79;27.35;100027.22;4404954;32;20503;-73
2022/06/22 11:17:19;;;;;;;3.92;0.73;;;;;;;30.70;28.11;100033.56;4404785;32;20574;-72
2022/06/22 11:20:03;;;;;;;1.12;0.70;;;;;;;30.00;28.51;100017.00;4404762;32;20090;-72
2022/06/22 11:22:38;;;;;;;2.33;0.80;;;;;;;30.09;28.69;100026.97;4404440;32;20796;-72
2022/06/22 11:31:15;;;;;;;7.65;0.82;;;;;;;30.80;28.57;100036.22;4399793;32;20108;-73
2022/06/22 11:33:54;;;;;;;2.25;0.90;;;;;;;31.72;27.66;100042.97;4390786;32;20124;-73
2022/06/22 11:36:46;;;;;;;29.92;1.65;;;;;;;33.24;25.56;100039.03;4386561;32;20758;-75
2022/06/22 11:39:40;;;;;;;2.22;0.80;;;;;;;33.51;25.59;100009.66;4399402;32;20131;-74
2022/06/22 11:42:18;;;;;;;0.90;0.70;;;;;;;34.15;26.19;100007.69;4403153;32;20086;-74
2022/06/22 11:47:59;;;;;;;0.90;0.90;;;;;;;36.34;22.11;99991.91;4404249;32;20196;-75
2022/06/22 11:50:27;;;;;;;0.77;0.73;;;;;;;36.17;23.34;99995.09;4404807;32;20136;-74
2022/06/22 11:53:13;;;;;;;2.97;1.00;;;;;;;37.62;22.54;99994.69;4408132;32;20089;-74
2022/06/22 11:55:47;;;;;;;5.82;1.15;;;;;;;36.50;23.45;99998.22;4404578;32;20519;-74
2022/06/22 11:58:33;;;;;;;10.45;1.00;;;;;;;35.61;24.05;99981.94;4399163;32;20132;-74
2022/06/22 12:01:19;;;;;;;1.70;0.62;;;;;;;35.66;22.78;99993.22;4385050;32;20128;-74
2022/06/22 12:04:05;;;;;;;;;;;;;;;35.63;22.91;99990.84;4385244;32;20174;-74
2022/06/22 12:06:57;;;;;;;2.47;0.90;;;;;;;37.05;22.44;99986.47;4385926;32;20619;-74
2022/06/22 12:09:50;;;;;;;5.47;0.98;;;;;;;37.55;22.33;99979.00;4385460;32;20121;-74
2022/06/22 12:12:36;;;;;;;4.18;0.98;;;;;;;37.99;22.57;99965.88;4380305;32;162740;-74
2022/06/22 12:15:22;;;;;;;2.65;0.75;;;;;;;37.87;21.48;99973.84;4386525;32;20116;-74
2022/06/22 12:18:11;;;;;;;1.25;0.50;;;;;;;37.91;21.37;99974.31;4402730;32;20780;-73
2022/06/22 12:21:04;;;;;;;2.72;0.60;;;;;;;37.89;21.24;99974.53;4408369;32;20128;-74
2022/06/22 12:24:15;;;;;;;0.88;0.80;;;;;;;39.25;20.20;99970.63;4408430;32;20167;-75
2022/06/22 12:26:54;;;;;;;3.42;0.80;;;;;;;39.34;20.44;99969.38;4408319;32;20102;-74
2022/06/22 12:29:43;;;;;;;3.08;0.80;;;;;;;39.68;20.74;99976.47;4408429;32;20078;-74
2022/06/22 12:32:23;;;;;;;2.75;1.15;;;;;;;39.47;21.07;99963.81;4408036;32;20097;-74
2022/06/22 12:35:12;;;;;;;2.40;1.12;;;;;;;37.98;23.30;99965.00;4408253;32;20105;-74
2022/06/22 12:38:22;;;;;;;1.25;1.12;;;;;;;37.33;23.95;99966.38;4408098;32;20111;-73
2022/06/22 12:41:16;;;;;;;4.72;1.40;;;;;;;39.33;22.13;99962.16;4391386;32;20750;-73
2022/06/22 12:44:02;;;;;;;6.43;0.95;;;;;;;39.07;22.52;99955.63;4408021;32;20105;-73
2022/06/22 12:46:56;;;;;;;2.45;1.20;;;;;;;39.63;22.51;99945.94;4407804;32;20100;-74
2022/06/22 12:49:45;;;;;;;3.42;0.90;;;;;;;39.28;21.75;99945.44;4407705;32;20093;-73
2022/06/22 12:52:36;;;;;;;6.57;1.20;;;;;;;38.81;22.39;99936.38;4407254;32;20124;-76
2022/06/22 12:55:29;;;;;;;2.00;1.12;;;;;;;39.60;22.02;99929.84;4406802;32;20101;-75